Latest Weather Observations for Gladstone

IDQ60801

Issued at 9:35 am EST Wednesday 3 September 2014 (issued every 30 minutes, with the page automatically refreshed every 10 minutes)

About weather observations | Map of weather stations | Latest weather observations for QLD | Other Formats
Station Details ID: 039123 Name: GLADSTONE RADAR Lat: -23.86 Lon: 151.26 Height: 74.5 m
Data from the previous 72 hours. | See also: Recent months at Gladstone
Date/Time
EST
Temp
°C
App
Temp
°C
Dew
Point
Rel
Hum
%
Delta-T
°C
Wind Press
QNH
hPa
Press
MSL
hPa
Rain
since 9 am
mm
Dir
 
Spd
km/h
Gust
km/h
Spd
kts
Gust
kts
03/09:30am 17.8 14.1 0.0 30 7.7 SSW 9 24 5 13 1017.5 1017.3 0.0
03/09:00am 17.7 13.9 1.7 34 7.2 SSW 11 20 6 11 1017.6 1017.4 0.0
03/08:30am 16.3 11.9 0.4 34 6.9 S 13 26 7 14 1017.6 1017.4 0.0
03/08:00am 15.6 11.2 0.6 36 6.5 SSW 13 33 7 18 1017.7 1017.5 0.0
03/07:30am 14.9 10.9 0.4 37 6.2 S 11 19 6 10 1017.5 1017.3 0.0
03/07:00am 14.2 10.1 -0.3 37 6.0 S 11 24 6 13 1017.2 1017.0 0.0
03/06:30am 14.3 9.8 -0.6 36 6.2 S 13 20 7 11 1016.8 1016.6 0.0
03/06:00am 14.3 10.1 -0.6 36 6.2 S 11 19 6 10 1016.4 1016.2 0.0
03/05:30am 14.5 10.0 0.0 37 6.1 S 13 17 7 9 1015.9 1015.7 0.0
03/05:00am 14.5 10.1 0.4 38 6.0 S 13 19 7 10 1015.5 1015.2 0.0
03/04:30am 15.2 11.2 0.2 36 6.4 S 11 24 6 13 1014.9 1014.6 0.0
03/04:00am 15.8 11.4 0.4 35 6.6 S 13 26 7 14 1014.7 1014.4 0.0
03/03:30am 16.2 11.4 0.3 34 6.9 S 15 22 8 12 1014.5 1014.2 0.0
03/03:00am 16.7 12.3 0.4 33 7.1 S 13 30 7 16 1014.6 1014.3 0.0
03/02:30am 17.3 12.5 0.5 32 7.3 S 15 30 8 16 1014.5 1014.2 0.0
03/02:00am 17.9 12.8 0.6 31 7.6 S 17 30 9 16 1014.6 1014.3 0.0
03/01:30am 18.5 13.3 0.2 29 8.0 S 17 30 9 16 1014.5 1014.2 0.0
03/01:00am 18.6 14.3 1.2 31 7.8 S 13 20 7 11 1014.4 1014.1 0.0
03/12:30am 19.2 13.7 1.7 31 8.0 S 20 32 11 17 1014.2 1013.9 0.0
03/12:00am 19.5 14.5 4.4 37 7.3 S 20 35 11 19 1013.9 1013.6 0.0
 
Date/Time
EST
Temp
°C
App
Temp
°C
Dew
Point
Rel
Hum
%
Delta-T
°C
Wind Press
QNH
hPa
Press
MSL
hPa
Rain
since 9 am
mm
Dir
 
Spd
km/h
Gust
km/h
Spd
kts
Gust
kts
02/11:30pm 19.4 16.4 10.7 57 4.7 SSW 17 28 9 15 1013.9 1013.6 0.0
02/11:00pm 19.5 17.7 13.2 67 3.6 SSW 15 20 8 11 1013.7 1013.4 0.0
02/10:30pm 19.4 18.5 13.6 69 3.3 SSW 11 17 6 9 1013.6 1013.3 0.0
02/10:00pm 19.4 18.7 13.3 68 3.5 SSW 9 13 5 7 1013.3 1013.0 0.0
02/09:30pm 19.4 19.0 14.0 71 3.1 SSW 9 13 5 7 1013.1 1012.8 0.0
02/09:00pm 19.9 19.5 14.0 69 3.4 SSW 9 13 5 7 1012.9 1012.6 0.0
02/08:30pm 20.5 19.4 14.2 67 3.7 NW 13 20 7 11 1012.0 1011.7 0.0
02/08:00pm 20.8 19.8 14.5 67 3.7 NW 13 20 7 11 1011.9 1011.6 0.0
02/07:30pm 20.1 20.0 14.9 72 3.1 NW 9 15 5 8 1012.1 1011.8 0.0
02/07:00pm 20.6 20.7 15.4 72 3.1 NNW 9 15 5 8 1011.9 1011.6 0.0
02/06:30pm 20.9 20.7 14.8 68 3.6 N 9 17 5 9 1011.8 1011.5 0.0
02/06:00pm 21.1 21.2 15.4 70 3.4 N 9 13 5 7 1011.6 1011.3 0.0
02/05:30pm 21.9 22.1 15.7 68 3.7 N 9 19 5 10 1011.3 1011.0 0.0
02/05:00pm 22.6 22.8 15.7 65 4.2 N 9 17 5 9 1011.3 1011.0 0.0
02/04:30pm 23.4 22.8 15.7 62 4.7 N 13 24 7 13 1011.0 1010.7 0.0
02/04:00pm 24.3 23.3 15.5 58 5.3 NNE 15 28 8 15 1011.0 1010.7 0.0
02/03:30pm 25.1 23.6 15.4 55 5.9 N 17 30 9 16 1010.9 1010.6 0.0
02/03:00pm 26.3 25.6 15.4 51 6.6 N 13 26 7 14 1011.0 1010.7 0.0
02/02:30pm 27.8 25.6 10.9 35 9.6 NNW 13 22 7 12 1011.3 1011.0 0.0
02/02:00pm 27.5 25.1 11.5 37 9.2 NNW 15 26 8 14 1012.0 1011.7 0.0
02/01:30pm 26.7 23.1 10.0 35 9.3 NW 19 28 10 15 1012.5 1012.2 0.0
02/01:00pm 26.2 23.2 9.1 34 9.4 NNW 15 26 8 14 1013.1 1012.8 0.0
02/12:30pm 25.2 21.1 7.8 33 9.3 NW 19 33 10 18 1013.9 1013.6 0.0
02/12:00pm 24.8 22.2 10.7 41 7.9 NW 15 26 8 14 1014.6 1014.3 0.0
02/11:30am 24.0 20.3 10.3 42 7.6 NNW 20 32 11 17 1015.3 1015.0 0.0
02/11:00am 24.2 21.2 10.8 43 7.5 WNW 17 30 9 16 1015.6 1015.3 0.0
02/10:30am 23.6 21.9 12.6 50 6.3 W 13 24 7 13 1016.2 1016.0 0.0
02/10:00am 22.6 21.6 13.4 56 5.3 NW 11 17 6 9 1016.8 1016.6 0.0
02/09:30am 21.8 20.5 13.7 60 4.7 WNW 13 20 7 11 1017.0 1016.8 0.0
02/09:00am 20.0 18.3 13.7 67 3.6 WNW 15 24 8 13 1017.3 1017.1 0.0
02/08:30am 18.9 19.1 14.8 77 2.4 W 7 17 4 9 1017.4 1017.2 0.0
02/08:00am 17.3 17.6 15.1 87 1.3 W 7 13 4 7 1017.4 1017.2 0.0
02/07:30am 16.1 16.5 14.8 92 0.7 WSW 6 9 3 5 1017.2 1017.0 0.0
02/07:00am 15.2 15.4 14.1 93 0.6 SW 6 7 3 4 1016.9 1016.7 0.0
02/06:30am 14.9 14.8 13.9 94 0.6 SW 7 11 4 6 1017.0 1016.8 0.0
02/06:00am 14.8 14.7 13.8 94 0.6 SW 7 9 4 5 1016.9 1016.7 0.0
02/05:30am 14.9 14.9 14.1 95 0.5 SW 7 11 4 6 1016.9 1016.7 0.0
02/05:00am 14.9 14.8 13.9 94 0.6 SW 7 9 4 5 1016.8 1016.6 0.0
02/04:30am 15.2 15.2 14.1 93 0.6 WSW 7 9 4 5 1016.5 1016.3 0.0
02/04:00am 15.6 15.9 14.6 94 0.6 W 6 9 3 5 1016.4 1016.2 0.0
02/03:30am 15.3 15.3 14.2 93 0.6 WSW 7 9 4 5 1016.5 1016.3 0.0
02/03:00am 15.3 15.3 14.2 93 0.6 SW 7 9 4 5 1016.9 1016.7 0.0
02/02:30am 15.4 15.4 14.1 92 0.7 SW 7 11 4 6 1016.9 1016.7 0.0
02/02:00am 15.8 15.8 14.3 91 0.9 SW 7 9 4 5 1017.2 1017.0 0.0
02/01:30am 16.4 16.1 14.4 88 1.1 W 9 15 5 8 1017.0 1016.8 0.0
02/01:00am 16.4 16.4 14.2 87 1.3 W 7 9 4 5 1017.7 1017.5 0.0
02/12:30am 16.2 16.1 14.0 87 1.3 SW 7 9 4 5 1017.7 1017.5 0.0
02/12:00am 16.5 16.4 13.8 84 1.5 SW 7 9 4 5 1017.8 1017.6 0.0
 
Date/Time
EST
Temp
°C
App
Temp
°C
Dew
Point
Rel
Hum
%
Delta-T
°C
Wind Press
QNH
hPa
Press
MSL
hPa
Rain
since 9 am
mm
Dir
 
Spd
km/h
Gust
km/h
Spd
kts
Gust
kts
01/11:30pm 16.9 16.8 14.0 83 1.7 W 7 9 4 5 1017.9 1017.7 0.0
01/11:00pm 17.3 17.4 14.4 83 1.7 W 7 9 4 5 1018.2 1018.0 0.0
01/10:30pm 17.3 17.5 14.6 84 1.6 WSW 7 9 4 5 1018.4 1018.2 0.0
01/10:00pm 18.2 18.7 15.6 85 1.5 NNW 7 9 4 5 1018.0 1017.8 0.0
01/09:30pm 18.4 18.5 15.6 84 1.7 NW 9 9 5 5 1018.4 1018.2 0.0
01/09:00pm 18.1 18.2 15.4 84 1.6 NW 9 11 5 6 1018.5 1018.3 0.0
01/08:30pm 18.4 18.4 15.3 82 1.8 NNW 9 13 5 7 1018.3 1018.1 0.0
01/08:00pm 18.3 18.1 14.8 80 2.0 NNW 9 11 5 6 1017.9 1017.7 0.0
01/07:30pm 18.4 18.5 14.5 78 2.3 NNW 7 13 4 7 1018.2 1018.0 0.0
01/07:00pm 18.5 17.8 14.2 76 2.5 NNE 11 19 6 10 1017.8 1017.6 0.0
01/06:30pm 18.9 17.9 12.2 65 3.7 NNE 9 17 5 9 1017.2 1017.0 0.0
01/06:00pm 19.6 17.8 9.5 52 5.4 NNE 9 15 5 8 1017.2 1017.0 0.0
01/05:30pm 20.9 17.5 6.1 38 7.4 N 13 20 7 11 1016.8 1016.6 0.0
01/05:00pm 21.8 18.3 5.3 34 8.2 NNE 13 20 7 11 1016.8 1016.6 0.0
01/04:30pm 22.3 18.7 6.9 37 7.9 NNE 15 24 8 13 1016.7 1016.5 0.0
01/04:00pm 23.4 20.3 9.0 40 7.7 NNE 15 24 8 13 1016.4 1016.2 0.0
01/03:30pm 24.3 21.5 8.7 37 8.4 NNE 13 24 7 13 1016.5 1016.3 0.0
01/03:00pm 24.8 21.6 8.3 35 8.8 NE 15 24 8 13 1016.6 1016.4 0.0
01/02:30pm 25.8 23.2 9.2 35 9.1 NNE 13 24 7 13 1016.8 1016.6 0.0
01/02:00pm 25.4 22.5 8.0 33 9.3 NNE 13 24 7 13 1016.9 1016.7 0.0
01/01:30pm 25.9 23.3 9.3 35 9.1 NE 13 24 7 13 1017.2 1017.0 0.0
01/01:00pm 27.2 24.5 9.1 32 10.0 NE 13 20 7 11 1018.0 1017.8 0.0
01/12:30pm 27.6 24.6 7.5 28 10.8 NE 13 20 7 11 1018.6 1018.4 0.0
01/12:00pm 26.7 23.8 6.7 28 10.5 NNE 11 17 6 9 1019.2 1019.0 0.0
01/11:30am 26.5 25.0 10.6 37 9.0 NE 9 19 5 10 1018.8 1018.6 0.0
01/11:00am 23.8 23.2 11.8 47 6.8 N 6 15 3 8 1018.8 1018.6 0.0
01/10:30am 23.0 22.6 12.3 51 6.1 WSW 6 13 3 7 1019.8 1019.5 0.0
01/10:00am 22.3 22.2 13.4 57 5.1 WSW 6 15 3 8 1020.2 1019.9 0.0
01/09:30am 20.7 20.4 13.2 62 4.3 WSW 7 13 4 7 1020.5 1020.3 0.0
01/09:00am 19.7 20.4 14.5 72 3.0 WSW 4 11 2 6 1020.6 1020.4 0.0
01/08:30am 18.6 19.1 15.1 80 2.1 SW 6 13 3 7 1020.4 1020.2 0.0
01/08:00am 17.2 17.4 14.7 85 1.4 SSW 7 13 4 7 1020.3 1020.1 0.0
01/07:30am 16.5 16.7 14.7 89 1.0 SSW 7 13 4 7 1019.7 1019.5 0.0
01/07:00am 15.9 16.1 14.6 92 0.7 SSW 7 9 4 5 1019.4 1019.2 0.0
01/06:30am 15.7 16.0 14.6 93 0.6 SSW 6 7 3 4 1018.7 1018.6 0.0
01/06:00am 15.3 15.3 14.3 94 0.6 SSW 7 9 4 5 1018.4 1018.3 0.0
01/05:30am 15.3 15.9 14.2 93 0.6 SSW 4 7 2 4 1018.2 1018.0 0.0
01/05:00am 15.2 15.1 13.9 92 0.7 SSW 7 9 4 5 1018.2 1018.0 0.0
01/04:30am 15.2 15.1 13.9 92 0.7 SSW 7 9 4 5 1018.1 1017.9 0.0
01/04:00am 15.4 15.3 13.9 91 0.8 SSW 7 9 4 5 1018.0 1017.8 0.0
01/03:30am 15.8 16.0 14.2 90 0.9 SW 6 7 3 4 1017.9 1017.7 0.0
01/03:00am 15.7 15.9 14.1 90 0.9 SSW 6 7 3 4 1018.0 1017.8 0.0
01/02:30am 15.8 15.8 14.2 90 0.9 SSW 7 9 4 5 1018.2 1018.0 0.0
01/02:00am 15.9 16.0 14.4 91 0.9 SSW 7 9 4 5 1018.3 1018.1 0.0
01/01:30am 15.9 16.0 14.4 91 0.9 SW 7 9 4 5 1018.4 1018.3 0.0
01/01:00am 15.9 16.0 14.4 91 0.9 SSW 7 9 4 5 1018.5 1018.4 0.0
01/12:30am 16.0 16.1 14.4 90 0.9 SSW 7 9 4 5 1018.6 1018.5 0.0
01/12:00am 16.1 16.1 14.1 88 1.1 SW 7 9 4 5 1018.8 1018.7 0.0
 
Date/Time
EST
Temp
°C
App
Temp
°C
Dew
Point
Rel
Hum
%
Delta-T
°C
Wind Press
QNH
hPa
Press
MSL
hPa
Rain
since 9 am
mm
Dir
 
Spd
km/h
Gust
km/h
Spd
kts
Gust
kts
31/11:30pm 16.3 16.4 14.5 89 1.0 WSW 7 11 4 6 1018.8 1018.7 0.0
31/11:00pm 16.6 16.8 14.8 89 1.0 W 7 9 4 5 1018.9 1018.8 0.0
31/10:30pm 17.2 17.2 15.2 88 1.2 WNW 9 13 5 7 1019.0 1018.9 0.0
31/10:00pm 17.9 17.6 15.5 86 1.4 NNW 11 15 6 8 1019.0 1018.9 0.0
31/09:30pm 17.8 17.9 15.4 86 1.4 N 9 13 5 7 1018.8 1018.7 0.0
31/09:00pm 17.4 17.8 15.2 87 1.3 NNE 7 11 4 6 1018.8 1018.7 0.0
31/08:30pm 17.7 18.1 15.3 86 1.4 N 7 13 4 7 1018.6 1018.5 0.0
31/08:00pm 17.6 17.6 15.2 86 1.4 NNE 9 13 5 7 1018.3 1018.1 0.0
31/07:30pm 17.8 17.8 15.1 84 1.6 NNE 9 15 5 8 1017.8 1017.6 0.0
31/07:00pm 17.9 17.3 13.6 76 2.4 N 9 11 5 6 1017.4 1017.2 0.0
31/06:30pm 18.1 17.8 13.4 74 2.7 N 7 13 4 7 1016.8 1016.6 0.0
31/06:00pm 18.5 17.1 12.3 67 3.5 NNE 11 19 6 10 1016.5 1016.3 0.0
31/05:30pm 19.3 17.5 10.8 58 4.6 NE 11 17 6 9 1016.2 1016.0 0.0
31/05:00pm 20.0 17.9 11.2 57 4.8 NE 13 20 7 11 1015.9 1015.7 0.0
31/04:30pm 21.3 18.4 8.2 43 6.9 NE 13 22 7 12 1015.6 1015.4 0.0
31/04:00pm 23.5 20.3 4.9 30 9.3 NE 11 19 6 10 1015.3 1015.1 0.0
31/03:30pm 23.8 20.3 3.7 27 9.9 NNE 11 20 6 11 1015.3 1015.1 0.0
31/03:00pm 23.4 19.6 5.8 32 8.9 NNE 15 24 8 13 1015.3 1015.1 0.0
31/02:30pm 23.1 20.3 11.5 48 6.5 NE 17 30 9 16 1015.5 1015.3 0.0
31/02:00pm 23.7 20.8 11.1 45 7.0 NE 17 24 9 13 1015.8 1015.6 0.0
31/01:30pm 24.1 21.4 11.8 46 7.0 NE 17 28 9 15 1016.1 1015.9 0.0
31/01:00pm 25.1 22.4 11.6 42 7.7 NE 17 24 9 13 1016.6 1016.4 0.0
31/12:30pm 26.1 22.7 5.7 27 10.5 NE 13 24 7 13 1017.0 1016.8 0.0
31/12:00pm 26.0 22.8 8.5 33 9.5 ENE 15 20 8 11 1017.4 1017.2 0.0
31/11:30am 24.9 22.9 7.1 32 9.3 W 7 13 4 7 1017.9 1017.7 0.0
31/11:00am 23.4 21.7 7.5 36 8.3 WSW 6 9 3 5 1018.5 1018.4 0.0
31/10:30am 23.4 22.3 10.1 43 7.3 SW 6 11 3 6 1018.8 1018.7 0.0
31/10:00am 22.2 21.7 12.5 54 5.5 SW 7 17 4 9 1019.2 1019.1 0.0

Other Formats:

Comma delimited format used in spreadsheet applications
http://www.bom.gov.au/fwo/IDQ60801/IDQ60801.94380.axf

JavaScript Object Notation format (JSON) in row-major order
http://www.bom.gov.au/fwo/IDQ60801/IDQ60801.94380.json